createdAt,value
2018-12-09T00:02:33.455Z,1.60
2018-12-09T00:05:20.309Z,2.90
2018-12-09T00:08:07.156Z,1.40
2018-12-09T00:10:54.313Z,2.53
2018-12-09T00:13:41.508Z,2.00
2018-12-09T00:16:28.642Z,0.20
2018-12-09T00:19:15.948Z,1.50
2018-12-09T00:22:02.864Z,0.97
2018-12-09T00:24:49.951Z,1.50
2018-12-09T00:27:36.863Z,0.40
2018-12-09T00:30:24.592Z,1.53
2018-12-09T00:33:11.569Z,1.30
2018-12-09T00:35:59.260Z,0.20
2018-12-09T00:38:47.842Z,0.30
2018-12-09T00:41:35.129Z,1.07
2018-12-09T00:44:22.318Z,0.47
2018-12-09T00:47:09.598Z,0.20
2018-12-09T00:49:56.983Z,0.20
2018-12-09T00:52:43.830Z,0.20
2018-12-09T00:55:30.781Z,0.10
2018-12-09T00:58:17.614Z,0.40
2018-12-09T01:01:05.074Z,0.20
2018-12-09T01:03:54.200Z,0.43
2018-12-09T01:06:40.991Z,2.37
2018-12-09T01:09:36.208Z,0.27
2018-12-09T01:12:23.568Z,0.20
2018-12-09T01:15:10.682Z,0.65
2018-12-09T01:17:58.219Z,0.17
2018-12-09T01:20:45.633Z,0.10
2018-12-09T01:23:32.972Z,0.97
2018-12-09T01:26:20.751Z,0.50
2018-12-09T01:29:07.552Z,0.10
2018-12-09T01:31:55.239Z,1.13
2018-12-09T01:34:42.526Z,0.00
2018-12-09T01:37:29.926Z,0.13
2018-12-09T01:40:17.389Z,0.10
2018-12-09T01:43:04.541Z,0.73
2018-12-09T01:45:52.024Z,0.10
2018-12-09T01:48:38.832Z,0.30
2018-12-09T01:51:26.155Z,0.93
2018-12-09T01:54:13.173Z,2.20
2018-12-09T01:57:00.079Z,1.63
2018-12-09T01:59:47.362Z,1.33
2018-12-09T02:02:34.145Z,1.90
2018-12-09T02:05:21.425Z,1.27
2018-12-09T02:08:08.640Z,0.93
2018-12-09T02:10:56.636Z,0.70
2018-12-09T02:13:43.594Z,0.77
2018-12-09T02:16:30.712Z,1.50
2018-12-09T02:19:17.767Z,0.87
2018-12-09T02:22:04.936Z,0.20
2018-12-09T02:24:52.627Z,0.43
2018-12-09T02:27:40.281Z,1.15
2018-12-09T02:30:27.267Z,0.20
2018-12-09T02:33:16.339Z,0.83
2018-12-09T02:36:11.218Z,1.37
2018-12-09T02:38:58.377Z,0.30
2018-12-09T02:41:46.187Z,0.70
2018-12-09T02:44:32.919Z,0.87
2018-12-09T02:47:35.462Z,0.63
2018-12-09T02:50:22.435Z,1.70
2018-12-09T02:53:14.590Z,0.63
2018-12-09T02:56:09.626Z,0.37
2018-12-09T02:58:57.699Z,4.47
2018-12-09T03:02:00.332Z,0.57
2018-12-09T03:04:48.530Z,1.45
2018-12-09T03:07:36.119Z,0.47
2018-12-09T03:10:23.212Z,0.50
2018-12-09T03:13:10.643Z,1.77
2018-12-09T03:15:59.246Z,3.27
2018-12-09T03:18:47.091Z,1.57
2018-12-09T03:21:33.885Z,1.47
2018-12-09T03:24:21.836Z,3.23
2018-12-09T03:27:09.750Z,1.17
2018-12-09T03:29:58.264Z,2.27
2018-12-09T03:32:45.917Z,1.37
2018-12-09T03:35:33.853Z,3.33
2018-12-09T03:38:21.020Z,3.78
2018-12-09T03:41:12.234Z,4.22
2018-12-09T03:43:59.148Z,5.60
2018-12-09T03:49:58.219Z,2.37
2018-12-09T03:52:45.360Z,2.00
2018-12-09T03:55:33.886Z,1.40
2018-12-09T03:58:23.070Z,2.37
2018-12-09T04:01:10.039Z,2.95
2018-12-09T04:03:57.236Z,3.17
2018-12-09T04:06:45.705Z,2.57
2018-12-09T04:09:33.172Z,3.13
2018-12-09T04:12:20.187Z,1.27
2018-12-09T04:15:08.065Z,4.03
2018-12-09T04:17:55.116Z,1.90
2018-12-09T04:20:42.028Z,1.47
2018-12-09T04:23:29.532Z,2.27
2018-12-09T04:26:16.827Z,1.80
2018-12-09T04:29:04.035Z,7.40
2018-12-09T04:31:53.148Z,1.90
2018-12-09T04:34:41.438Z,2.33
2018-12-09T04:40:35.330Z,1.93
2018-12-09T04:43:24.636Z,1.27
2018-12-09T04:46:11.299Z,3.03
2018-12-09T04:48:58.297Z,1.90
2018-12-09T04:51:54.419Z,2.77
2018-12-09T04:54:43.230Z,2.23
2018-12-09T04:57:30.461Z,2.33
2018-12-09T05:00:47.862Z,2.57
2018-12-09T05:03:34.773Z,3.00
2018-12-09T05:06:22.186Z,2.28
2018-12-09T05:09:09.723Z,2.00
2018-12-09T05:11:56.832Z,0.83
2018-12-09T05:14:44.619Z,1.80
2018-12-09T05:17:31.532Z,1.83
2018-12-09T05:20:19.411Z,2.62
2018-12-09T05:23:06.965Z,2.53
2018-12-09T05:25:54.421Z,2.80
2018-12-09T05:28:44.595Z,1.80
2018-12-09T05:34:38.806Z,0.73
2018-12-09T05:37:26.661Z,2.10
2018-12-09T05:40:13.917Z,2.17
2018-12-09T05:43:01.064Z,3.87
2018-12-09T05:45:52.032Z,1.90
2018-12-09T05:48:39.455Z,0.73
2018-12-09T05:51:27.754Z,1.50
2018-12-09T05:54:14.807Z,2.70
2018-12-09T05:57:02.250Z,1.90
2018-12-09T05:59:49.506Z,1.47
2018-12-09T06:02:51.773Z,2.55
2018-12-09T06:05:39.046Z,1.93
2018-12-09T06:08:28.658Z,2.03
2018-12-09T06:11:15.511Z,2.43
2018-12-09T06:14:02.491Z,2.43
2018-12-09T06:16:49.600Z,2.87
2018-12-09T06:19:37.006Z,2.67
2018-12-09T06:22:24.153Z,1.60
2018-12-09T06:25:11.153Z,1.57
2018-12-09T06:27:58.348Z,1.13
2018-12-09T06:30:48.259Z,2.33
2018-12-09T06:33:33.274Z,2.13
2018-12-09T06:36:21.556Z,2.15
2018-12-09T06:39:08.463Z,1.47
2018-12-09T06:41:57.708Z,0.60
2018-12-09T06:44:44.794Z,1.30
2018-12-09T06:47:32.021Z,0.50
2018-12-09T06:50:19.031Z,0.80
2018-12-09T06:53:06.354Z,0.93
2018-12-09T06:55:56.330Z,0.83
2018-12-09T06:58:43.345Z,1.23
2018-12-09T07:04:36.284Z,1.63
2018-12-09T07:07:23.260Z,1.73
2018-12-09T07:10:12.551Z,0.63
2018-12-09T07:12:59.695Z,0.70
2018-12-09T07:15:47.259Z,0.50
2018-12-09T07:18:34.585Z,0.60
2018-12-09T07:21:22.047Z,1.10
2018-12-09T07:24:08.917Z,1.10
2018-12-09T07:26:55.684Z,1.13
2018-12-09T07:29:44.251Z,0.67
2018-12-09T07:32:32.086Z,1.87
2018-12-09T07:35:20.107Z,1.57
2018-12-09T07:38:07.319Z,1.97
2018-12-09T07:40:54.787Z,0.80
2018-12-09T07:46:56.034Z,7.03
2018-12-09T07:49:44.670Z,3.00
2018-12-09T07:52:32.042Z,1.33
2018-12-09T07:55:19.912Z,3.60
2018-12-09T07:58:08.271Z,1.73
2018-12-09T08:00:56.813Z,4.57
2018-12-09T08:03:44.107Z,5.03
2018-12-09T08:06:34.330Z,4.77
2018-12-09T08:09:25.233Z,1.70
2018-12-09T08:12:16.933Z,5.30
2018-12-09T08:15:03.920Z,2.03
2018-12-09T08:17:51.281Z,3.70
2018-12-09T08:20:38.672Z,2.60
2018-12-09T08:23:25.725Z,1.50
2018-12-09T08:26:13.069Z,2.47
2018-12-09T08:29:00.351Z,3.90
2018-12-09T08:31:47.460Z,4.70
2018-12-09T08:34:35.500Z,3.50
2018-12-09T08:37:22.883Z,3.63
2018-12-09T08:40:28.570Z,2.37
2018-12-09T08:43:15.478Z,3.43
2018-12-09T08:46:03.002Z,4.80
2018-12-09T08:48:50.111Z,4.43
2018-12-09T08:54:43.236Z,2.63
2018-12-09T08:57:31.422Z,4.23
2018-12-09T09:06:48.647Z,3.00
2018-12-09T09:09:38.226Z,4.33
2018-12-09T09:12:25.218Z,3.00
2018-12-09T09:15:16.757Z,2.37
2018-12-09T09:18:06.534Z,2.63
2018-12-09T09:20:54.899Z,2.20
2018-12-09T09:23:47.031Z,4.10
2018-12-09T09:26:38.065Z,2.77
2018-12-09T09:29:25.032Z,2.43
2018-12-09T09:32:16.219Z,1.90
2018-12-09T09:35:04.452Z,3.27
2018-12-09T09:37:51.616Z,2.73
2018-12-09T09:40:40.546Z,3.80
2018-12-09T09:46:37.911Z,3.73
2018-12-09T09:49:25.179Z,1.50
2018-12-09T09:52:13.636Z,1.20
2018-12-09T09:55:04.428Z,1.67
2018-12-09T09:57:53.115Z,2.23
2018-12-09T10:00:40.169Z,1.97
2018-12-09T10:03:29.124Z,1.50
2018-12-09T10:09:28.497Z,0.97
2018-12-09T10:12:17.107Z,2.03
2018-12-09T10:15:03.040Z,1.40
2018-12-09T10:17:51.577Z,0.70
2018-12-09T10:20:39.101Z,1.33
2018-12-09T10:23:26.157Z,1.57
2018-12-09T10:26:13.596Z,0.30
2018-12-09T10:29:02.089Z,0.90
2018-12-09T10:31:58.696Z,0.67
2018-12-09T10:34:50.624Z,0.50
2018-12-09T10:37:38.926Z,1.60
2018-12-09T10:43:32.988Z,1.13
2018-12-09T10:46:21.806Z,1.87
2018-12-09T10:49:07.328Z,1.30
2018-12-09T10:55:02.003Z,2.23
2018-12-09T10:58:07.215Z,0.47
2018-12-09T11:01:13.636Z,1.93
2018-12-09T11:03:58.192Z,0.10
2018-12-09T11:06:45.012Z,0.20
2018-12-09T11:09:33.419Z,0.33
2018-12-09T11:12:20.365Z,0.20
2018-12-09T11:15:07.550Z,1.33
2018-12-09T11:17:55.701Z,1.23
2018-12-09T11:20:44.477Z,0.23
2018-12-09T11:23:35.424Z,0.20
2018-12-09T11:26:30.649Z,0.13
2018-12-09T11:29:19.192Z,1.13
2018-12-09T11:32:06.305Z,0.97
2018-12-09T11:34:53.870Z,0.93
2018-12-09T11:40:50.848Z,0.70
2018-12-09T11:43:38.577Z,1.12
2018-12-09T11:46:25.948Z,1.50
2018-12-09T11:49:12.912Z,3.00
2018-12-09T11:52:02.685Z,5.17
2018-12-09T11:54:57.319Z,5.35
2018-12-09T11:57:47.983Z,1.17
2018-12-09T12:00:34.823Z,0.90
2018-12-09T12:03:22.006Z,2.00
2018-12-09T12:06:08.956Z,6.27
2018-12-09T12:08:56.165Z,5.93
2018-12-09T12:11:44.475Z,5.37
2018-12-09T12:14:32.032Z,3.00
2018-12-09T12:17:18.944Z,2.03
2018-12-09T12:20:06.568Z,1.53
2018-12-09T12:22:53.525Z,1.40
2018-12-09T12:25:41.722Z,0.50
2018-12-09T12:28:28.586Z,0.63
2018-12-09T12:31:23.159Z,0.50
2018-12-09T12:34:10.748Z,1.73
2018-12-09T12:36:58.231Z,1.17
2018-12-09T12:39:44.990Z,1.57
2018-12-09T12:42:44.130Z,2.10
2018-12-09T12:45:31.488Z,0.47
2018-12-09T12:48:22.804Z,0.43
2018-12-09T12:54:17.955Z,0.17
2018-12-09T12:57:05.446Z,1.30
2018-12-09T12:59:52.661Z,1.50
2018-12-09T13:02:39.567Z,0.50
2018-12-09T13:05:26.789Z,0.50
2018-12-09T13:08:14.152Z,0.53
2018-12-09T13:11:01.219Z,0.70
2018-12-09T13:13:49.159Z,2.63
2018-12-09T13:16:37.520Z,0.60
2018-12-09T13:19:25.634Z,1.47
2018-12-09T13:22:13.523Z,2.00
2018-12-09T13:25:01.861Z,1.80
2018-12-09T13:27:52.997Z,1.47
2018-12-09T13:30:40.519Z,2.13
2018-12-09T13:33:30.318Z,4.17
2018-12-09T13:36:17.907Z,2.67
2018-12-09T13:39:05.551Z,1.60
2018-12-09T13:41:52.586Z,1.37
2018-12-09T13:44:39.706Z,1.97
2018-12-09T13:47:27.288Z,1.93
2018-12-09T13:50:14.160Z,1.60
2018-12-09T13:56:12.632Z,1.23
2018-12-09T13:59:00.891Z,3.10
2018-12-09T14:01:48.562Z,0.63
2018-12-09T14:04:36.004Z,2.77
2018-12-09T14:07:23.380Z,1.40
2018-12-09T14:13:17.218Z,3.90
2018-12-09T14:16:05.596Z,2.80
2018-12-09T14:18:55.884Z,2.20
2018-12-09T14:21:43.814Z,2.40
2018-12-09T14:24:30.711Z,1.57
2018-12-09T14:27:25.906Z,1.77
2018-12-09T14:30:20.778Z,1.27
2018-12-09T14:33:07.977Z,1.77
2018-12-09T14:35:54.800Z,2.83
2018-12-09T14:41:48.925Z,0.73
2018-12-09T14:44:36.052Z,0.83
2018-12-09T14:47:27.270Z,1.67
2018-12-09T14:50:15.402Z,0.87
2018-12-09T14:53:02.823Z,1.53
2018-12-09T14:55:57.787Z,3.17
2018-12-09T14:58:44.816Z,1.80
2018-12-09T15:01:40.527Z,2.20
2018-12-09T15:04:29.146Z,3.50
2018-12-09T15:07:16.593Z,2.80
2018-12-09T15:10:08.561Z,1.57
2018-12-09T15:12:51.843Z,2.70
2018-12-09T15:15:49.857Z,2.53
2018-12-09T15:18:36.671Z,2.90
2018-12-09T15:24:45.931Z,4.30
2018-12-09T15:33:48.660Z,3.63
2018-12-09T15:36:35.619Z,1.27
2018-12-09T15:39:22.976Z,2.50
2018-12-09T15:42:10.470Z,3.13
2018-12-09T15:45:02.394Z,1.83
2018-12-09T15:47:50.326Z,3.13
2018-12-09T15:50:39.393Z,2.77
2018-12-09T15:53:27.234Z,3.60
2018-12-09T15:56:15.782Z,1.60
2018-12-09T16:17:56.257Z,1.40
2018-12-09T16:20:43.374Z,1.43
2018-12-09T16:23:30.844Z,2.33
2018-12-09T16:26:17.729Z,2.07
2018-12-09T16:29:04.835Z,3.87
2018-12-09T16:31:52.209Z,1.20
2018-12-09T16:34:39.439Z,1.60
2018-12-09T16:37:26.586Z,0.70
2018-12-09T16:40:13.508Z,1.70
2018-12-09T16:43:00.458Z,2.90
2018-12-09T16:45:48.283Z,1.07
2018-12-09T16:48:35.621Z,1.07
2018-12-09T16:51:29.695Z,2.40
2018-12-09T16:57:28.115Z,2.60
2018-12-09T17:00:15.956Z,5.23
2018-12-09T17:03:06.215Z,5.47
2018-12-09T17:05:54.557Z,3.63
2018-12-09T17:08:45.991Z,3.00
2018-12-09T17:11:33.671Z,2.73
2018-12-09T17:14:25.523Z,1.90
2018-12-09T17:17:21.263Z,1.23
2018-12-09T17:20:10.497Z,2.33
2018-12-09T17:23:02.929Z,2.50
2018-12-09T17:25:51.828Z,3.10
2018-12-09T17:28:39.654Z,2.57
2018-12-09T17:31:28.997Z,1.70
2018-12-09T17:34:17.428Z,5.37
2018-12-09T17:37:04.635Z,2.23
2018-12-09T17:39:52.313Z,2.60
2018-12-09T17:42:39.909Z,1.80
2018-12-09T17:45:28.756Z,1.20
2018-12-09T17:48:16.587Z,2.27
2018-12-09T17:51:04.698Z,1.70
2018-12-09T17:54:03.895Z,1.67
2018-12-09T17:56:51.982Z,2.80
2018-12-09T17:59:40.017Z,3.07
2018-12-09T18:02:29.896Z,2.27
2018-12-09T18:05:19.577Z,4.13
2018-12-09T18:08:08.133Z,2.37
2018-12-09T18:10:55.496Z,0.67
2018-12-09T18:13:42.802Z,1.80
2018-12-09T18:16:30.397Z,0.93
2018-12-09T18:19:25.399Z,3.67
2018-12-09T18:22:13.484Z,4.43
2018-12-09T18:25:01.141Z,2.87
2018-12-09T18:27:48.998Z,3.70
2018-12-09T18:30:36.502Z,3.03
2018-12-09T18:36:33.682Z,3.50
2018-12-09T18:39:22.418Z,1.33
2018-12-09T18:42:19.832Z,2.57
2018-12-09T18:45:12.899Z,2.63
2018-12-09T18:48:02.427Z,2.97
2018-12-09T18:50:51.769Z,4.70
2018-12-09T18:53:42.500Z,1.90
2018-12-09T18:56:29.843Z,3.30
2018-12-09T18:59:17.772Z,5.47
2018-12-09T19:02:05.016Z,6.00
2018-12-09T19:04:54.272Z,7.67
2018-12-09T19:07:46.277Z,9.93
2018-12-09T19:10:37.631Z,8.50
2018-12-09T19:13:29.213Z,6.97
2018-12-09T19:16:18.379Z,5.73
2018-12-09T19:19:07.555Z,7.10
2018-12-09T19:21:56.306Z,9.20
2018-12-09T19:24:44.005Z,8.90
2018-12-09T19:27:32.054Z,11.57
2018-12-09T19:30:21.082Z,9.60
2018-12-09T19:33:08.490Z,8.33
2018-12-09T19:36:08.799Z,5.33
2018-12-09T19:39:00.239Z,7.57
2018-12-09T19:41:49.899Z,7.77
2018-12-09T19:44:37.487Z,10.57
2018-12-09T19:47:25.043Z,11.90
2018-12-09T19:50:12.798Z,11.63
2018-12-09T19:53:01.926Z,7.07
2018-12-09T19:55:50.945Z,6.03
2018-12-09T19:58:43.396Z,13.83
2018-12-09T20:01:30.331Z,13.30
2018-12-09T20:04:17.398Z,7.27
2018-12-09T20:07:06.390Z,12.87
2018-12-09T20:09:54.184Z,10.07
2018-12-09T20:12:43.392Z,8.95
2018-12-09T20:15:36.154Z,9.17
2018-12-09T20:18:23.831Z,6.10
2018-12-09T20:21:11.557Z,8.17
2018-12-09T20:24:09.431Z,6.17
2018-12-09T20:27:05.051Z,8.43
2018-12-09T20:29:55.274Z,7.27
2018-12-09T20:32:48.335Z,12.45
2018-12-09T20:35:37.874Z,8.10
2018-12-09T20:38:35.984Z,12.50
2018-12-09T20:47:52.271Z,11.10
2018-12-09T20:50:47.655Z,13.27
2018-12-09T20:53:36.142Z,11.50
2018-12-09T20:56:47.656Z,6.60
2018-12-09T20:59:43.796Z,10.00
2018-12-09T21:02:39.726Z,12.10
2018-12-09T21:05:46.284Z,12.57
2018-12-09T21:08:31.716Z,15.40
2018-12-09T21:11:20.857Z,6.70
2018-12-09T21:17:18.234Z,9.30
2018-12-09T21:20:07.154Z,14.27
2018-12-09T21:23:00.491Z,8.90
2018-12-09T21:25:45.241Z,7.97
2018-12-09T21:28:34.540Z,15.60
2018-12-09T21:31:24.423Z,12.57
2018-12-09T21:34:13.870Z,11.43
2018-12-09T21:37:04.617Z,12.63
2018-12-09T21:39:57.137Z,13.17
2018-12-09T21:42:52.846Z,16.77
2018-12-09T21:45:53.468Z,20.37
2018-12-09T21:52:08.802Z,14.07
2018-12-09T21:55:01.159Z,11.90
2018-12-09T22:01:11.972Z,16.97
2018-12-09T22:04:04.478Z,12.27
2018-12-09T22:07:01.679Z,11.30
2018-12-09T22:09:51.212Z,9.80
2018-12-09T22:12:40.302Z,8.80
2018-12-09T22:15:28.048Z,10.50
2018-12-09T22:18:19.832Z,9.77
2018-12-09T22:21:07.858Z,9.77
2018-12-09T22:23:55.780Z,9.43
2018-12-09T22:26:45.336Z,11.37
2018-12-09T22:29:32.517Z,11.90
2018-12-09T22:32:20.270Z,18.77
2018-12-09T22:35:11.305Z,13.10
2018-12-09T22:37:58.907Z,11.00
2018-12-09T22:40:48.091Z,16.83
2018-12-09T22:43:35.626Z,9.53
2018-12-09T22:46:23.114Z,10.13
2018-12-09T22:49:12.039Z,11.93
2018-12-09T22:51:59.756Z,16.58
2018-12-09T22:54:48.964Z,13.10
2018-12-09T22:57:37.809Z,12.47
2018-12-09T23:00:26.807Z,19.10
2018-12-09T23:03:16.523Z,14.07
2018-12-09T23:06:06.577Z,13.23
2018-12-09T23:08:55.578Z,12.67
2018-12-09T23:11:43.335Z,13.57
2018-12-09T23:14:31.730Z,11.63
2018-12-09T23:17:22.235Z,15.97
2018-12-09T23:20:22.140Z,10.05
2018-12-09T23:23:10.394Z,10.90
2018-12-09T23:25:57.799Z,15.00
2018-12-09T23:28:51.265Z,12.60
2018-12-09T23:31:39.195Z,13.20
2018-12-09T23:34:27.361Z,12.17
2018-12-09T23:37:25.489Z,12.10
2018-12-09T23:40:13.620Z,10.20
2018-12-09T23:43:01.209Z,8.90
2018-12-09T23:45:49.495Z,12.03
2018-12-09T23:48:37.463Z,12.80
2018-12-09T23:51:25.011Z,13.60
2018-12-09T23:54:12.759Z,11.70
2018-12-09T23:57:02.425Z,9.43
2018-12-09T23:59:49.847Z,9.00
